Time;durP1;ratioP1;P1;durP2;ratioP2;P2;SDS_P1;SDS_P2;PMS_P1;PMS_P2;Temp;Humidity;BMP_temperature;BMP_pressure;BME280_temperature;BME280_humidity;BME280_pressure;Samples;Min_cycle;Max_cycle;Signal;HPM_P1;HPM_P2
2024/01/01 00:00:49;;;;;;;31.57;15.30;;;;;;;;;;4997060;28;20038;-76
2024/01/01 00:03:26;;;;;;;30.33;14.47;;;;;;;;;;5006106;28;20022;-76
2024/01/01 00:06:05;;;;;;;;;;;;;;;;;;;;;
2024/01/01 00:08:31;;;;;;;21.77;12.73;;;;;;;;;;5015899;28;20019;-76
2024/01/01 00:11:03;;;;;;;23.97;11.57;;;;;;;;;;4997484;28;20014;-76
2024/01/01 00:13:41;;;;;;;23.65;11.68;;;;;;;;;;5004640;28;20030;-77
2024/01/01 00:16:31;;;;;;;22.60;11.03;;;;;;;;;;4998730;28;20046;-76
2024/01/01 00:19:12;;;;;;;16.93;8.97;;;;;;;;;;4988784;28;20014;-76
2024/01/01 00:21:41;;;;;;;18.37;8.73;;;;;;;;;;5002148;28;20018;-76
2024/01/01 00:24:23;;;;;;;;;;;;;;;;;;;;;
2024/01/01 00:26:54;;;;;;;14.40;5.03;;;;;;;;;;5018025;28;20042;-76
2024/01/01 00:29:30;;;;;;;11.73;4.70;;;;;;;;;;5005555;28;20030;-77
2024/01/01 00:31:56;;;;;;;11.90;4.57;;;;;;;;;;5014373;28;20049;-77
2024/01/01 00:34:24;;;;;;;13.67;3.40;;;;;;;;;;5000997;28;20038;-76
2024/01/01 00:37:00;;;;;;;15.87;4.13;;;;;;;;;;5016092;28;20042;-77
2024/01/01 00:39:48;;;;;;;14.90;4.20;;;;;;;;;;5008490;28;20014;-77
2024/01/01 00:42:22;;;;;;;10.73;3.47;;;;;;;;;;5009097;28;20030;-77
2024/01/01 00:44:53;;;;;;;7.53;2.50;;;;;;;;;;5052268;23;20031;-76
2024/01/01 00:47:29;;;;;;;9.80;2.80;;;;;;;;;;4992428;28;20018;-77
2024/01/01 00:50:00;;;;;;;9.00;3.33;;;;;;;;;;4995510;28;20010;-77
2024/01/01 00:52:39;;;;;;;;;;;;;;;;;;;;;
2024/01/01 00:55:17;;;;;;;11.17;4.13;;;;;;;;;;4994926;28;20057;-76
2024/01/01 00:57:52;;;;;;;9.97;3.00;;;;;;;;;;4982085;28;20034;-77
2024/01/01 01:00:18;;;;;;;9.60;2.27;;;;;;;;;;4996507;28;20031;-77
2024/01/01 01:02:51;;;;;;;9.53;2.17;;;;;;;;;;4997328;28;20023;-77
2024/01/01 01:05:19;;;;;;;12.97;2.00;;;;;;;;;;4980630;28;20030;-77
2024/01/01 01:08:16;;;;;;;5.37;2.20;;;;;;;;;;4981024;28;20108;-77
2024/01/01 01:10:52;;;;;;;14.37;3.03;;;;;;;;;;4998114;28;20006;-77
2024/01/01 01:13:28;;;;;;;;;;;;;;;;;;;;;
2024/01/01 01:16:19;;;;;;;8.13;1.80;;;;;;;;;;5065970;23;20046;-77
2024/01/01 01:19:04;;;;;;;7.43;1.60;;;;;;;;;;4984067;28;20018;-77
2024/01/01 01:21:38;;;;;;;5.47;1.90;;;;;;;;;;4980635;28;20007;-76
2024/01/01 01:24:15;;;;;;;7.97;1.53;;;;;;;;;;4984736;28;20216;-77
2024/01/01 01:26:44;;;;;;;9.73;2.17;;;;;;;;;;4977252;28;20038;-77
2024/01/01 01:29:21;;;;;;;5.70;1.57;;;;;;;;;;4987119;28;20125;-76
2024/01/01 01:32:10;;;;;;;13.63;2.83;;;;;;;;;;4987841;28;20049;-77
2024/01/01 01:34:39;;;;;;;9.87;1.80;;;;;;;;;;4987973;28;20017;-77
2024/01/01 01:37:08;;;;;;;11.63;2.17;;;;;;;;;;4987083;28;20055;-76
2024/01/01 01:39:39;;;;;;;11.60;2.07;;;;;;;;;;4999460;28;20011;-77
2024/01/01 01:42:10;;;;;;;6.97;2.23;;;;;;;;;;4991749;28;20018;-76
2024/01/01 01:44:53;;;;;;;6.73;1.90;;;;;;;;;;4990420;28;20015;-76
2024/01/01 01:47:21;;;;;;;7.20;2.10;;;;;;;;;;4999501;28;20010;-76
2024/01/01 01:49:53;;;;;;;10.17;2.27;;;;;;;;;;5006960;28;20046;-76
2024/01/01 01:52:20;;;;;;;10.88;1.65;;;;;;;;;;4987236;28;20037;-77
2024/01/01 01:54:52;;;;;;;9.00;1.90;;;;;;;;;;4989470;28;20018;-77
2024/01/01 01:57:37;;;;;;;;;;;;;;;;;;;;;
2024/01/01 02:00:29;;;;;;;;;;;;;;;;;;;;;
2024/01/01 02:03:03;;;;;;;13.57;1.98;;;;;;;;;;5005579;28;20042;-77
2024/01/01 02:05:39;;;;;;;7.80;1.77;;;;;;;;;;5003910;28;20014;-76
2024/01/01 02:08:23;;;;;;;8.07;1.97;;;;;;;;;;4998543;28;20010;-77
2024/01/01 02:10:50;;;;;;;7.50;2.23;;;;;;;;;;4989569;28;20011;-76
2024/01/01 02:16:09;;;;;;;12.00;1.63;;;;;;;;;;5048058;23;20045;-76
2024/01/01 02:18:38;;;;;;;12.20;1.90;;;;;;;;;;5011217;28;20033;-77
2024/01/01 02:21:09;;;;;;;11.43;2.77;;;;;;;;;;5008939;28;20053;-77
2024/01/01 02:23:35;;;;;;;18.20;2.97;;;;;;;;;;5012681;28;20030;-76
2024/01/01 02:26:06;;;;;;;10.37;2.33;;;;;;;;;;5014314;28;20030;-77
2024/01/01 02:28:43;;;;;;;16.73;2.60;;;;;;;;;;5014470;28;20010;-76
2024/01/01 02:31:15;;;;;;;10.60;2.20;;;;;;;;;;5026390;28;20037;-76
2024/01/01 02:33:46;;;;;;;16.63;2.60;;;;;;;;;;5008839;28;20037;-76
2024/01/01 02:39:11;;;;;;;16.70;2.30;;;;;;;;;;5006279;28;20022;-76
2024/01/01 02:41:39;;;;;;;17.97;3.17;;;;;;;;;;5018058;28;20035;-76
2024/01/01 02:44:07;;;;;;;11.30;3.00;;;;;;;;;;5014346;28;20039;-75
2024/01/01 02:46:36;;;;;;;15.33;3.03;;;;;;;;;;5009417;28;20065;-76
2024/01/01 02:49:02;;;;;;;18.03;3.23;;;;;;;;;;5009240;28;20041;-77
2024/01/01 02:51:28;;;;;;;21.50;2.60;;;;;;;;;;5010038;28;20090;-77
2024/01/01 02:53:57;;;;;;;17.37;2.57;;;;;;;;;;5027780;28;20036;-76
2024/01/01 02:56:29;;;;;;;15.63;2.73;;;;;;;;;;5024551;28;20030;-77
2024/01/01 02:58:55;;;;;;;24.07;3.90;;;;;;;;;;5010773;28;20022;-76
2024/01/01 03:01:23;;;;;;;20.83;3.03;;;;;;;;;;5011412;28;20235;-76
2024/01/01 03:03:52;;;;;;;23.07;3.80;;;;;;;;;;5010078;28;20094;-77
2024/01/01 03:06:25;;;;;;;30.23;2.90;;;;;;;;;;5008204;28;20034;-77
2024/01/01 03:08:51;;;;;;;16.17;2.57;;;;;;;;;;5026969;28;20086;-76
2024/01/01 03:11:20;;;;;;;17.97;2.47;;;;;;;;;;5025962;28;20017;-76
2024/01/01 03:13:46;;;;;;;23.83;4.47;;;;;;;;;;5025749;28;20025;-77
2024/01/01 03:16:14;;;;;;;20.10;3.00;;;;;;;;;;5019074;28;20041;-77
2024/01/01 03:18:59;;;;;;;17.30;3.33;;;;;;;;;;5008316;28;20020;-77
2024/01/01 03:21:25;;;;;;;23.63;3.80;;;;;;;;;;5022551;23;20037;-76
2024/01/01 03:23:53;;;;;;;17.20;2.27;;;;;;;;;;5011468;28;20037;-76
2024/01/01 03:26:19;;;;;;;22.53;3.13;;;;;;;;;;5009127;28;20038;-76
2024/01/01 03:28:48;;;;;;;24.57;2.37;;;;;;;;;;5024107;28;20022;-76
2024/01/01 03:31:22;;;;;;;17.57;2.43;;;;;;;;;;5009587;28;21034;-77
2024/01/01 03:33:48;;;;;;;20.53;3.43;;;;;;;;;;5025220;28;20025;-78
2024/01/01 03:36:14;;;;;;;20.87;3.83;;;;;;;;;;5008382;28;20031;-76
2024/01/01 03:38:40;;;;;;;17.73;3.10;;;;;;;;;;5009152;28;20042;-77
2024/01/01 03:41:06;;;;;;;29.77;3.87;;;;;;;;;;5020749;23;20022;-77
2024/01/01 03:43:44;;;;;;;20.87;2.30;;;;;;;;;;5009818;28;20003;-78
2024/01/01 03:46:13;;;;;;;24.97;3.33;;;;;;;;;;4995281;28;20051;-77
2024/01/01 03:48:39;;;;;;;22.47;2.70;;;;;;;;;;5004852;28;20031;-77
2024/01/01 03:51:08;;;;;;;15.97;2.97;;;;;;;;;;5004206;28;20019;-77
2024/01/01 03:53:34;;;;;;;21.17;3.40;;;;;;;;;;5002837;28;20061;-77
2024/01/01 03:56:00;;;;;;;19.53;2.50;;;;;;;;;;5006036;28;20046;-77
2024/01/01 03:58:26;;;;;;;23.43;3.97;;;;;;;;;;5005194;28;20094;-77
2024/01/01 04:00:52;;;;;;;19.73;2.67;;;;;;;;;;5006994;28;20049;-77
2024/01/01 04:03:18;;;;;;;17.03;3.00;;;;;;;;;;4990698;28;20057;-77
2024/01/01 04:05:54;;;;;;;18.80;3.23;;;;;;;;;;5004200;28;20026;-77
2024/01/01 04:08:23;;;;;;;24.30;4.03;;;;;;;;;;5009844;28;20026;-77
2024/01/01 04:13:35;;;;;;;22.77;3.03;;;;;;;;;;5022450;23;20062;-77
2024/01/01 04:16:09;;;;;;;19.87;3.40;;;;;;;;;;5006215;28;20146;-77
2024/01/01 04:18:37;;;;;;;16.90;3.83;;;;;;;;;;5007264;28;20022;-77
2024/01/01 04:21:09;;;;;;;21.67;2.63;;;;;;;;;;5009302;28;20017;-77
2024/01/01 04:23:35;;;;;;;23.43;3.53;;;;;;;;;;5012041;28;20030;-77
2024/01/01 04:26:01;;;;;;;17.17;2.67;;;;;;;;;;4996958;28;20039;-77
2024/01/01 04:28:30;;;;;;;15.70;3.10;;;;;;;;;;5010309;28;20087;-77
2024/01/01 04:30:56;;;;;;;20.23;2.87;;;;;;;;;;4994643;28;20099;-78
2024/01/01 04:33:22;;;;;;;18.87;3.80;;;;;;;;;;4995092;28;20011;-78
2024/01/01 04:35:48;;;;;;;16.10;2.70;;;;;;;;;;5005974;28;20026;-78
2024/01/01 04:38:15;;;;;;;16.27;2.73;;;;;;;;;;4995529;28;20033;-77
2024/01/01 04:40:43;;;;;;;24.37;4.27;;;;;;;;;;5009747;28;20029;-77
2024/01/01 04:43:18;;;;;;;20.40;2.97;;;;;;;;;;5009132;28;20058;-78
2024/01/01 04:45:47;;;;;;;14.87;2.70;;;;;;;;;;5076591;23;20120;-78
2024/01/01 04:48:13;;;;;;;16.87;3.40;;;;;;;;;;5000115;28;20010;-78
2024/01/01 04:50:39;;;;;;;18.30;3.20;;;;;;;;;;4997108;28;20018;-77
2024/01/01 04:53:05;;;;;;;22.80;2.43;;;;;;;;;;4989087;28;20007;-78
2024/01/01 04:55:31;;;;;;;17.60;2.67;;;;;;;;;;5015296;28;20032;-78
2024/01/01 04:57:57;;;;;;;13.43;2.90;;;;;;;;;;4998083;28;20011;-78
2024/01/01 05:00:26;;;;;;;19.77;3.13;;;;;;;;;;4998938;28;20023;-77
2024/01/01 05:02:56;;;;;;;17.30;2.70;;;;;;;;;;4996877;28;20041;-78
2024/01/01 05:05:23;;;;;;;16.10;2.87;;;;;;;;;;5000031;28;20011;-79
2024/01/01 05:07:54;;;;;;;16.50;2.17;;;;;;;;;;5004459;28;20030;-77
2024/01/01 05:10:20;;;;;;;14.57;2.63;;;;;;;;;;4998235;28;20006;-77
2024/01/01 05:12:49;;;;;;;13.47;3.20;;;;;;;;;;4990848;28;20040;-77
2024/01/01 05:15:18;;;;;;;13.63;2.43;;;;;;;;;;5176226;23;20056;-77
2024/01/01 05:17:52;;;;;;;22.97;3.53;;;;;;;;;;5040013;28;20042;-76
2024/01/01 05:20:20;;;;;;;23.30;3.60;;;;;;;;;;5012355;28;20010;-77
2024/01/01 05:22:55;;;;;;;14.90;2.43;;;;;;;;;;5015732;28;20037;-78
2024/01/01 05:25:23;;;;;;;12.73;3.50;;;;;;;;;;5021700;28;20017;-78
2024/01/01 05:27:52;;;;;;;27.37;3.33;;;;;;;;;;5012214;28;20010;-78
2024/01/01 05:30:20;;;;;;;22.00;3.40;;;;;;;;;;5023364;28;20030;-77
2024/01/01 05:32:46;;;;;;;11.77;2.47;;;;;;;;;;5022063;28;20026;-77
2024/01/01 05:35:12;;;;;;;17.40;2.53;;;;;;;;;;5025422;28;20030;-78
2024/01/01 05:37:41;;;;;;;21.33;2.70;;;;;;;;;;5014020;28;20026;-79
2024/01/01 05:40:07;;;;;;;11.97;2.43;;;;;;;;;;5027063;28;20022;-78
2024/01/01 05:42:33;;;;;;;15.40;2.47;;;;;;;;;;5022485;28;20018;-77
2024/01/01 05:45:03;;;;;;;13.67;2.17;;;;;;;;;;5022752;28;20053;-77
2024/01/01 05:47:29;;;;;;;17.67;2.70;;;;;;;;;;5022513;28;20013;-78
2024/01/01 05:49:55;;;;;;;16.90;3.23;;;;;;;;;;5026591;28;20028;-78
2024/01/01 05:52:26;;;;;;;16.70;3.03;;;;;;;;;;5020241;28;20006;-78
2024/01/01 05:54:59;;;;;;;23.57;3.20;;;;;;;;;;5023228;28;20037;-77
2024/01/01 05:57:25;;;;;;;15.33;3.23;;;;;;;;;;5012984;28;20026;-77
2024/01/01 05:59:57;;;;;;;18.53;2.63;;;;;;;;;;5021487;28;20009;-77
2024/01/01 06:02:32;;;;;;;14.33;2.63;;;;;;;;;;5023037;28;20034;-77
2024/01/01 06:05:00;;;;;;;15.20;3.37;;;;;;;;;;5034827;28;20022;-77
2024/01/01 06:07:29;;;;;;;19.93;3.13;;;;;;;;;;5023068;28;20026;-77
2024/01/01 06:10:03;;;;;;;18.13;3.37;;;;;;;;;;5013276;28;20021;-77
2024/01/01 06:12:29;;;;;;;19.77;3.00;;;;;;;;;;5021659;28;20045;-77
2024/01/01 06:14:55;;;;;;;16.77;2.50;;;;;;;;;;5078511;23;20037;-77
2024/01/01 06:17:24;;;;;;;17.23;2.57;;;;;;;;;;5019916;28;20014;-77
2024/01/01 06:19:52;;;;;;;16.60;3.43;;;;;;;;;;5027089;28;20041;-77
2024/01/01 06:22:23;;;;;;;12.80;2.93;;;;;;;;;;5017738;28;20026;-77
2024/01/01 06:24:50;;;;;;;12.33;3.17;;;;;;;;;;5011933;28;20035;-78
2024/01/01 06:27:18;;;;;;;14.37;2.47;;;;;;;;;;5011337;28;20039;-77
2024/01/01 06:29:52;;;;;;;19.47;3.27;;;;;;;;;;5011773;28;20058;-77
2024/01/01 06:32:18;;;;;;;15.80;3.57;;;;;;;;;;5013752;28;20076;-77
2024/01/01 06:35:00;;;;;;;22.80;3.47;;;;;;;;;;5012429;28;20017;-77
2024/01/01 06:37:29;;;;;;;18.42;2.97;;;;;;;;;;5026478;28;20036;-77
2024/01/01 06:39:57;;;;;;;18.60;2.83;;;;;;;;;;5026893;28;20029;-77
2024/01/01 06:42:26;;;;;;;15.47;4.03;;;;;;;;;;5026496;28;20024;-77
2024/01/01 06:44:59;;;;;;;14.57;2.67;;;;;;;;;;5029387;23;20030;-77
2024/01/01 06:47:25;;;;;;;21.03;3.27;;;;;;;;;;5006985;28;20058;-77
2024/01/01 06:49:51;;;;;;;15.33;2.90;;;;;;;;;;4994838;28;20098;-77
2024/01/01 06:52:20;;;;;;;10.93;1.83;;;;;;;;;;5010597;28;20006;-77
2024/01/01 06:54:48;;;;;;;13.30;2.80;;;;;;;;;;5011149;28;20086;-77
2024/01/01 06:57:19;;;;;;;14.73;2.53;;;;;;;;;;4987589;28;20054;-77
2024/01/01 06:59:51;;;;;;;21.30;3.27;;;;;;;;;;4994531;28;20203;-77
2024/01/01 07:02:18;;;;;;;15.35;2.47;;;;;;;;;;5011763;28;20014;-77
2024/01/01 07:05:02;;;;;;;12.87;2.87;;;;;;;;;;5009901;28;20038;-77
2024/01/01 07:07:28;;;;;;;16.10;2.43;;;;;;;;;;5010510;28;20049;-77
2024/01/01 07:09:54;;;;;;;18.63;3.00;;;;;;;;;;5010284;28;20018;-77
2024/01/01 07:12:27;;;;;;;22.37;3.27;;;;;;;;;;4994643;28;20026;-77
2024/01/01 07:14:53;;;;;;;16.70;2.63;;;;;;;;;;5005018;28;20029;-77
2024/01/01 07:17:19;;;;;;;16.90;2.30;;;;;;;;;;5012345;28;20030;-77
2024/01/01 07:20:05;;;;;;;26.63;2.80;;;;;;;;;;4989648;28;20015;-77
2024/01/01 07:22:34;;;;;;;10.33;2.13;;;;;;;;;;5012086;28;20022;-77
2024/01/01 07:25:03;;;;;;;14.83;2.27;;;;;;;;;;5010639;28;20015;-77
2024/01/01 07:27:31;;;;;;;9.03;2.07;;;;;;;;;;4989144;28;20014;-77
2024/01/01 07:29:57;;;;;;;8.87;1.87;;;;;;;;;;5007913;28;20046;-77
2024/01/01 07:32:29;;;;;;;12.50;1.53;;;;;;;;;;5014084;28;20061;-77
2024/01/01 07:34:55;;;;;;;14.40;2.70;;;;;;;;;;5011095;28;20046;-76
2024/01/01 07:37:26;;;;;;;8.83;1.83;;;;;;;;;;4986615;28;20049;-77
2024/01/01 07:39:52;;;;;;;8.47;1.40;;;;;;;;;;4987551;28;20030;-77
2024/01/01 07:42:21;;;;;;;10.50;1.67;;;;;;;;;;5012189;28;20277;-77
2024/01/01 07:44:47;;;;;;;13.70;1.40;;;;;;;;;;5010581;28;20026;-78
2024/01/01 07:47:15;;;;;;;8.63;2.00;;;;;;;;;;5009812;28;20090;-77
2024/01/01 07:49:46;;;;;;;10.93;1.83;;;;;;;;;;5011040;28;20423;-77
2024/01/01 07:52:13;;;;;;;10.00;1.90;;;;;;;;;;4986566;28;20031;-77
2024/01/01 07:54:45;;;;;;;13.00;2.00;;;;;;;;;;5008807;28;20031;-77
2024/01/01 07:57:13;;;;;;;4.40;1.75;;;;;;;;;;5010101;28;20061;-77
2024/01/01 07:59:59;;;;;;;12.93;1.40;;;;;;;;;;4992402;28;20044;-77
2024/01/01 08:02:28;;;;;;;9.67;1.70;;;;;;;;;;5008548;28;20050;-76
2024/01/01 08:04:57;;;;;;;9.80;1.67;;;;;;;;;;5010880;28;20213;-77
2024/01/01 08:07:25;;;;;;;4.17;1.40;;;;;;;;;;4993622;28;20037;-77
2024/01/01 08:09:54;;;;;;;7.97;1.50;;;;;;;;;;4990068;28;20030;-77
2024/01/01 08:12:20;;;;;;;4.60;1.20;;;;;;;;;;5010876;28;20014;-77
2024/01/01 08:14:49;;;;;;;5.37;1.33;;;;;;;;;;5011420;28;20118;-76
2024/01/01 08:17:17;;;;;;;9.97;1.07;;;;;;;;;;5011139;28;20074;-76
2024/01/01 08:19:43;;;;;;;6.70;0.80;;;;;;;;;;5010622;28;20029;-77
2024/01/01 08:22:15;;;;;;;4.83;1.20;;;;;;;;;;5005675;28;20015;-77
2024/01/01 08:24:45;;;;;;;2.60;0.57;;;;;;;;;;5010906;28;20014;-77
2024/01/01 08:27:11;;;;;;;2.57;0.57;;;;;;;;;;5008846;28;20038;-77
2024/01/01 08:29:37;;;;;;;8.30;0.90;;;;;;;;;;4986084;28;20035;-77
2024/01/01 08:32:07;;;;;;;4.53;0.70;;;;;;;;;;5011038;28;20069;-77
2024/01/01 08:34:33;;;;;;;6.87;0.50;;;;;;;;;;5010364;28;20035;-76
2024/01/01 08:37:00;;;;;;;4.20;0.77;;;;;;;;;;5010055;28;20038;-77
2024/01/01 08:39:28;;;;;;;2.27;0.60;;;;;;;;;;5008232;28;20022;-77
2024/01/01 08:41:57;;;;;;;6.50;1.17;;;;;;;;;;5011783;28;20189;-77
2024/01/01 08:44:23;;;;;;;6.57;0.87;;;;;;;;;;5068148;23;20034;-77
2024/01/01 08:46:55;;;;;;;4.50;0.70;;;;;;;;;;5010654;28;20046;-77
2024/01/01 08:49:27;;;;;;;4.70;0.47;;;;;;;;;;5017330;28;20022;-77
2024/01/01 08:51:53;;;;;;;5.90;1.02;;;;;;;;;;5013146;28;20317;-77
2024/01/01 08:54:21;;;;;;;4.50;0.80;;;;;;;;;;5012341;28;20045;-77
2024/01/01 08:56:49;;;;;;;2.77;0.77;;;;;;;;;;5010965;28;20022;-76
2024/01/01 08:59:18;;;;;;;2.70;0.53;;;;;;;;;;5010752;28;20022;-77
2024/01/01 09:01:44;;;;;;;4.63;0.50;;;;;;;;;;5027541;28;20014;-77
2024/01/01 09:04:14;;;;;;;5.37;0.73;;;;;;;;;;5012936;28;20025;-78
2024/01/01 09:06:43;;;;;;;6.63;0.80;;;;;;;;;;5027752;28;20026;-77
2024/01/01 09:09:12;;;;;;;4.43;1.13;;;;;;;;;;5027359;28;20026;-76
2024/01/01 09:11:38;;;;;;;3.50;0.60;;;;;;;;;;5013070;28;20037;-77
2024/01/01 09:14:04;;;;;;;7.30;0.63;;;;;;;;;;5010254;28;20046;-77
2024/01/01 09:16:31;;;;;;;3.90;0.60;;;;;;;;;;5028071;28;20034;-77
2024/01/01 09:18:59;;;;;;;5.20;0.73;;;;;;;;;;5012429;28;20018;-77
2024/01/01 09:21:28;;;;;;;2.53;0.53;;;;;;;;;;5012099;28;20076;-76
2024/01/01 09:26:46;;;;;;;6.00;0.83;;;;;;;;;;5016961;28;20027;-78
2024/01/01 09:29:18;;;;;;;2.87;0.70;;;;;;;;;;5012916;28;20033;-77
2024/01/01 09:31:44;;;;;;;5.50;0.82;;;;;;;;;;5020944;28;20123;-78
2024/01/01 09:34:10;;;;;;;6.53;1.20;;;;;;;;;;5016633;28;20038;-77
2024/01/01 09:37:01;;;;;;;6.90;1.17;;;;;;;;;;5014792;28;20057;-77
2024/01/01 09:39:28;;;;;;;4.77;0.80;;;;;;;;;;5018604;28;20102;-77
2024/01/01 09:41:56;;;;;;;4.63;0.90;;;;;;;;;;5012241;28;20026;-76
2024/01/01 09:44:25;;;;;;;5.33;1.20;;;;;;;;;;5011827;28;20072;-76
2024/01/01 09:47:03;;;;;;;5.03;0.70;;;;;;;;;;5008423;28;20024;-77
2024/01/01 09:49:32;;;;;;;5.93;1.43;;;;;;;;;;5009834;28;20018;-77
2024/01/01 09:51:58;;;;;;;3.43;0.60;;;;;;;;;;5008478;28;20018;-76
2024/01/01 09:54:29;;;;;;;4.53;1.00;;;;;;;;;;5026280;28;20045;-77
2024/01/01 09:56:58;;;;;;;6.23;0.93;;;;;;;;;;5049586;23;20030;-77
2024/01/01 09:59:37;;;;;;;5.83;0.93;;;;;;;;;;5002772;28;20041;-77
2024/01/01 10:02:07;;;;;;;5.63;0.70;;;;;;;;;;5018722;28;20112;-77
2024/01/01 10:04:37;;;;;;;5.07;0.87;;;;;;;;;;5004017;28;20025;-77
2024/01/01 10:07:03;;;;;;;3.63;0.90;;;;;;;;;;5038484;23;20040;-77
2024/01/01 10:09:29;;;;;;;9.33;1.50;;;;;;;;;;5002370;28;20023;-76
2024/01/01 10:12:12;;;;;;;12.67;1.53;;;;;;;;;;4986383;28;20078;-77
2024/01/01 10:14:48;;;;;;;7.37;1.47;;;;;;;;;;5075083;23;20034;-77
2024/01/01 10:17:17;;;;;;;8.47;0.97;;;;;;;;;;5008209;28;20011;-76
2024/01/01 10:20:02;;;;;;;7.30;1.20;;;;;;;;;;5006157;28;20035;-76
2024/01/01 10:22:34;;;;;;;8.60;1.50;;;;;;;;;;5009170;28;20077;-76
2024/01/01 10:25:13;;;;;;;6.20;2.03;;;;;;;;;;4991614;28;20037;-77
2024/01/01 10:27:41;;;;;;;8.93;1.30;;;;;;;;;;5009965;28;20058;-76
2024/01/01 10:30:10;;;;;;;6.97;0.93;;;;;;;;;;5009105;28;20027;-76
2024/01/01 10:32:36;;;;;;;9.47;1.90;;;;;;;;;;5006442;28;20078;-76
2024/01/01 10:35:03;;;;;;;6.87;1.27;;;;;;;;;;4997400;28;20114;-76
2024/01/01 10:37:30;;;;;;;6.63;1.50;;;;;;;;;;4991376;28;20031;-77
2024/01/01 10:40:05;;;;;;;7.20;1.43;;;;;;;;;;4998925;28;20018;-76
2024/01/01 10:42:34;;;;;;;10.60;1.63;;;;;;;;;;5009143;28;20047;-76
2024/01/01 10:45:05;;;;;;;10.10;1.77;;;;;;;;;;5015897;28;20066;-75
2024/01/01 10:47:35;;;;;;;12.63;1.90;;;;;;;;;;5000061;28;20022;-76
2024/01/01 10:50:19;;;;;;;7.10;0.90;;;;;;;;;;5013592;28;20018;-77
2024/01/01 10:53:02;;;;;;;9.67;1.53;;;;;;;;;;5022532;28;20057;-76
2024/01/01 10:55:38;;;;;;;10.90;1.67;;;;;;;;;;5017116;28;20037;-76
2024/01/01 10:58:19;;;;;;;10.13;1.80;;;;;;;;;;5015293;28;20014;-76
2024/01/01 11:01:05;;;;;;;10.80;2.07;;;;;;;;;;4992336;28;20018;-77
2024/01/01 11:03:33;;;;;;;10.53;1.83;;;;;;;;;;4996602;28;20015;-76
2024/01/01 11:06:27;;;;;;;6.50;1.17;;;;;;;;;;5006898;28;20021;-79
2024/01/01 11:09:03;;;;;;;6.47;1.17;;;;;;;;;;4993780;28;20030;-77
2024/01/01 11:11:44;;;;;;;;;;;;;;;;;;;;;
2024/01/01 11:14:11;;;;;;;4.63;1.13;;;;;;;;;;5016595;28;20014;-77
2024/01/01 11:16:52;;;;;;;7.87;1.40;;;;;;;;;;5003189;28;20022;-76
2024/01/01 11:19:37;;;;;;;9.87;1.77;;;;;;;;;;5000658;28;20021;-77
2024/01/01 11:22:30;;;;;;;8.57;1.63;;;;;;;;;;5017211;28;20010;-78
2024/01/01 11:24:57;;;;;;;8.57;1.40;;;;;;;;;;4990153;28;20019;-77
2024/01/01 11:27:32;;;;;;;10.30;2.47;;;;;;;;;;4996616;28;20015;-77
2024/01/01 11:30:04;;;;;;;4.50;1.37;;;;;;;;;;5013078;28;20011;-75
2024/01/01 11:32:30;;;;;;;4.17;0.90;;;;;;;;;;5012984;28;20014;-76
2024/01/01 11:35:06;;;;;;;5.00;0.80;;;;;;;;;;4999412;28;20038;-75
2024/01/01 11:37:33;;;;;;;6.43;1.20;;;;;;;;;;5002030;28;20081;-75
2024/01/01 11:39:59;;;;;;;7.57;1.20;;;;;;;;;;5018730;28;20025;-77
2024/01/01 11:42:25;;;;;;;5.50;1.00;;;;;;;;;;5008979;28;20026;-76
2024/01/01 11:45:10;;;;;;;7.87;1.80;;;;;;;;;;4996142;28;20014;-77
2024/01/01 11:47:39;;;;;;;9.53;1.20;;;;;;;;;;4990396;28;20113;-77
2024/01/01 11:50:06;;;;;;;6.73;1.50;;;;;;;;;;5002257;28;20015;-77
2024/01/01 11:52:34;;;;;;;6.20;1.13;;;;;;;;;;5001904;28;20030;-77
2024/01/01 11:55:00;;;;;;;9.13;1.63;;;;;;;;;;5002580;28;20013;-77
2024/01/01 11:57:29;;;;;;;8.70;1.40;;;;;;;;;;4999394;28;20010;-77
2024/01/01 11:59:56;;;;;;;6.57;1.53;;;;;;;;;;4992298;28;20089;-77
2024/01/01 12:02:42;;;;;;;10.77;2.37;;;;;;;;;;5001918;28;20011;-77
2024/01/01 12:05:08;;;;;;;5.00;1.33;;;;;;;;;;5001293;28;20011;-77
2024/01/01 12:07:35;;;;;;;6.90;1.93;;;;;;;;;;5002602;28;20014;-77
2024/01/01 12:10:06;;;;;;;13.07;1.27;;;;;;;;;;5005702;28;20086;-77
2024/01/01 12:12:35;;;;;;;13.10;1.87;;;;;;;;;;5024845;28;20026;-77
2024/01/01 12:15:09;;;;;;;13.40;2.10;;;;;;;;;;5000647;28;20023;-77
2024/01/01 12:17:38;;;;;;;7.63;2.17;;;;;;;;;;4986196;28;20054;-77
2024/01/01 12:20:07;;;;;;;10.63;1.60;;;;;;;;;;5006304;28;20332;-77
2024/01/01 12:22:38;;;;;;;12.70;1.90;;;;;;;;;;4995439;28;20142;-77
2024/01/01 12:25:04;;;;;;;8.20;1.40;;;;;;;;;;5004939;28;20015;-77
2024/01/01 12:27:30;;;;;;;9.87;1.33;;;;;;;;;;4989575;28;20029;-77
2024/01/01 12:29:59;;;;;;;7.47;1.10;;;;;;;;;;4989837;28;20026;-77
2024/01/01 12:32:25;;;;;;;11.27;1.73;;;;;;;;;;5003889;28;20014;-77
2024/01/01 12:34:52;;;;;;;14.37;2.00;;;;;;;;;;5005048;28;20042;-77
2024/01/01 12:37:25;;;;;;;9.30;2.57;;;;;;;;;;5004733;28;20034;-78
2024/01/01 12:39:53;;;;;;;15.37;3.20;;;;;;;;;;4994303;28;20091;-77
2024/01/01 12:42:22;;;;;;;12.17;2.43;;;;;;;;;;4999599;28;20011;-76
2024/01/01 12:44:56;;;;;;;11.90;2.80;;;;;;;;;;5002660;28;20029;-76
2024/01/01 12:47:22;;;;;;;15.90;3.27;;;;;;;;;;5004379;28;20019;-77
2024/01/01 12:49:48;;;;;;;11.77;2.23;;;;;;;;;;4994065;28;20033;-76
2024/01/01 12:52:15;;;;;;;8.70;2.10;;;;;;;;;;4988218;28;20019;-77
2024/01/01 12:54:41;;;;;;;14.43;3.50;;;;;;;;;;4992085;28;20099;-77
2024/01/01 12:57:11;;;;;;;17.30;2.60;;;;;;;;;;5001726;28;20070;-76
2024/01/01 12:59:41;;;;;;;13.97;2.73;;;;;;;;;;4992766;28;20034;-76
2024/01/01 13:02:07;;;;;;;12.47;2.73;;;;;;;;;;4991970;28;20079;-76
2024/01/01 13:04:35;;;;;;;11.87;2.40;;;;;;;;;;4994337;28;20026;-77
2024/01/01 13:07:04;;;;;;;14.90;2.77;;;;;;;;;;4996138;28;20018;-76
2024/01/01 13:09:30;;;;;;;17.27;3.53;;;;;;;;;;5001037;28;20022;-77
2024/01/01 13:12:02;;;;;;;14.83;2.47;;;;;;;;;;5006572;28;20014;-76
2024/01/01 13:14:29;;;;;;;18.88;3.42;;;;;;;;;;4988835;28;20026;-76
2024/01/01 13:17:02;;;;;;;15.67;3.27;;;;;;;;;;4987946;28;20054;-76
2024/01/01 13:19:32;;;;;;;12.60;3.57;;;;;;;;;;5017710;28;20047;-76
2024/01/01 13:21:59;;;;;;;14.33;2.77;;;;;;;;;;4988830;28;20023;-76
2024/01/01 13:24:25;;;;;;;13.90;2.90;;;;;;;;;;4990682;28;20038;-77
2024/01/01 13:26:54;;;;;;;17.40;2.57;;;;;;;;;;5003966;28;20086;-76
2024/01/01 13:29:20;;;;;;;24.07;4.63;;;;;;;;;;5004739;28;20038;-76
2024/01/01 13:31:51;;;;;;;16.13;3.00;;;;;;;;;;5008206;28;20034;-76
2024/01/01 13:34:23;;;;;;;18.83;3.07;;;;;;;;;;4991781;28;20025;-76
2024/01/01 13:36:52;;;;;;;24.13;3.97;;;;;;;;;;4996531;28;20038;-76
2024/01/01 13:39:25;;;;;;;20.70;3.63;;;;;;;;;;4997258;28;20054;-76
2024/01/01 13:41:59;;;;;;;24.20;2.90;;;;;;;;;;4993624;28;20018;-76
2024/01/01 13:44:25;;;;;;;21.17;3.50;;;;;;;;;;5049966;23;20026;-76
2024/01/01 13:46:51;;;;;;;16.00;3.77;;;;;;;;;;4992048;28;20042;-77
2024/01/01 13:49:30;;;;;;;21.00;3.63;;;;;;;;;;5001222;28;20026;-76
2024/01/01 13:52:06;;;;;;;;;;;;;;;;;;;;;
2024/01/01 13:54:50;;;;;;;;;;;;;;;;;;;;;
2024/01/01 13:57:16;;;;;;;20.63;5.13;;;;;;;;;;5019101;28;20053;-76
2024/01/01 13:59:42;;;;;;;14.57;2.50;;;;;;;;;;5002391;28;20045;-76
2024/01/01 14:02:08;;;;;;;17.73;2.83;;;;;;;;;;4991175;28;20081;-77
2024/01/01 14:04:52;;;;;;;19.53;2.77;;;;;;;;;;5000314;28;20045;-76
2024/01/01 14:07:23;;;;;;;18.73;3.47;;;;;;;;;;5001929;28;20026;-76
2024/01/01 14:09:53;;;;;;;25.92;2.90;;;;;;;;;;5063283;23;20038;-76
2024/01/01 14:12:27;;;;;;;14.77;3.10;;;;;;;;;;5017084;28;20046;-76
2024/01/01 14:14:53;;;;;;;23.37;3.33;;;;;;;;;;4990410;28;20023;-76
2024/01/01 14:17:24;;;;;;;23.03;3.53;;;;;;;;;;5019920;28;20053;-76
2024/01/01 14:19:52;;;;;;;24.60;3.87;;;;;;;;;;5001655;28;20019;-76
2024/01/01 14:22:20;;;;;;;26.40;4.23;;;;;;;;;;5003398;28;20046;-76
2024/01/01 14:24:56;;;;;;;11.63;2.97;;;;;;;;;;5001749;28;20053;-78
2024/01/01 14:27:25;;;;;;;18.17;3.17;;;;;;;;;;5001757;28;20128;-76
2024/01/01 14:29:55;;;;;;;31.03;3.70;;;;;;;;;;4999993;28;20104;-77
2024/01/01 14:32:29;;;;;;;16.47;3.60;;;;;;;;;;5001770;28;20026;-77
2024/01/01 14:34:58;;;;;;;13.30;2.90;;;;;;;;;;5000720;28;20033;-76
2024/01/01 14:37:24;;;;;;;17.73;4.13;;;;;;;;;;5000137;28;20054;-76
2024/01/01 14:39:53;;;;;;;28.90;5.23;;;;;;;;;;5001841;28;20014;-76
2024/01/01 14:42:19;;;;;;;21.13;3.47;;;;;;;;;;4997515;28;20026;-77
2024/01/01 14:44:48;;;;;;;17.17;3.93;;;;;;;;;;4993979;28;20065;-77
2024/01/01 14:47:15;;;;;;;19.80;2.70;;;;;;;;;;5009282;28;20015;-76
2024/01/01 14:49:42;;;;;;;21.77;3.63;;;;;;;;;;5008648;28;20026;-77
2024/01/01 14:52:11;;;;;;;13.40;2.63;;;;;;;;;;4993411;28;20041;-76
2024/01/01 14:54:37;;;;;;;19.83;3.80;;;;;;;;;;4996845;28;20014;-76
2024/01/01 14:57:03;;;;;;;18.30;3.43;;;;;;;;;;4990988;28;20049;-76
2024/01/01 14:59:29;;;;;;;15.33;3.70;;;;;;;;;;4992813;28;20015;-76
2024/01/01 15:01:58;;;;;;;18.03;3.73;;;;;;;;;;5010093;28;20031;-77
2024/01/01 15:04:35;;;;;;;25.80;5.77;;;;;;;;;;4994942;28;20049;-77
2024/01/01 15:07:04;;;;;;;19.20;3.57;;;;;;;;;;5001651;28;20193;-77
2024/01/01 15:09:31;;;;;;;19.17;3.50;;;;;;;;;;4991634;28;20053;-76
2024/01/01 15:11:57;;;;;;;16.27;3.60;;;;;;;;;;4991806;28;20026;-76
2024/01/01 15:14:23;;;;;;;13.67;2.87;;;;;;;;;;4992701;28;20030;-76